Time;durP1;ratioP1;P1;durP2;ratioP2;P2;SDS_P1;SDS_P2;PMS_P1;PMS_P2;Temp;Humidity;BMP_temperature;BMP_pressure;BME280_temperature;BME280_humidity;BME280_pressure;Samples;Min_cycle;Max_cycle;Signal;HPM_P1;HPM_P2
2022/07/14 00:01:58;;;;;;;;;12.25;8.75;;;;;27.62;31.62;101279.34;5037858;28;45225;-58
2022/07/14 00:04:23;;;;;;;;;9.00;9.00;;;;;27.60;31.56;101275.94;5032184;28;45545;-58
2022/07/14 00:06:48;;;;;;;;;10.00;9.00;;;;;27.58;31.61;101276.09;5035831;28;45262;-58
2022/07/14 00:09:14;;;;;;;;;10.25;9.00;;;;;27.56;31.74;101278.06;5035391;28;61670;-58
2022/07/14 00:11:39;;;;;;;;;12.75;8.50;;;;;27.55;32.29;101279.06;5030926;28;45388;-58
2022/07/14 00:14:04;;;;;;;;;8.00;7.25;;;;;27.54;32.25;101269.28;5038927;28;47505;-57
2022/07/14 00:16:30;;;;;;;;;8.50;8.50;;;;;27.52;32.27;101260.53;5031445;28;45304;-58
2022/07/14 00:18:55;;;;;;;;;14.50;11.50;;;;;27.51;31.99;101256.13;5032520;28;45410;-58
2022/07/14 00:21:21;;;;;;;;;10.00;9.25;;;;;27.50;32.58;101253.56;5035024;28;46786;-58
2022/07/14 00:23:48;;;;;;;;;8.25;6.25;;;;;27.49;32.25;101243.81;5027930;28;47485;-58
2022/07/14 00:26:14;;;;;;;;;7.50;6.00;;;;;27.46;32.66;101237.75;5029117;28;45516;-58
2022/07/14 00:28:39;;;;;;;;;7.25;7.25;;;;;27.47;32.88;101241.28;5034505;28;45476;-59
2022/07/14 00:31:09;;;;;;;;;10.00;10.00;;;;;27.45;32.82;101227.97;5033703;28;49694;-58
2022/07/14 00:33:36;;;;;;;;;9.75;9.00;;;;;27.45;32.58;101224.44;5036164;28;46168;-58
2022/07/14 00:36:01;;;;;;;;;11.25;8.00;;;;;27.43;32.73;101226.41;5035356;28;45407;-58
2022/07/14 00:38:27;;;;;;;;;10.75;9.50;;;;;27.42;33.13;101222.03;5029099;28;45504;-56
2022/07/14 00:40:52;;;;;;;;;13.50;10.25;;;;;27.40;32.88;101218.63;5032091;28;45309;-59
2022/07/14 00:43:18;;;;;;;;;13.50;10.75;;;;;27.39;33.06;101223.16;5020153;28;46516;-58
2022/07/14 00:45:44;;;;;;;;;11.50;8.50;;;;;27.37;33.39;101222.44;5036258;28;45860;-58
2022/07/14 00:48:10;;;;;;;;;14.00;10.75;;;;;27.35;33.07;101224.41;5021601;28;45417;-57
2022/07/14 00:50:41;;;;;;;;;9.75;7.50;;;;;27.33;33.20;101223.69;5031201;28;45373;-58
2022/07/14 00:53:07;;;;;;;;;14.00;12.25;;;;;27.32;33.35;101224.72;5026607;28;46475;-58
2022/07/14 00:55:33;;;;;;;;;20.50;15.75;;;;;27.30;32.78;101220.44;5029904;28;45329;-56
2022/07/14 00:57:58;;;;;;;;;17.75;14.25;;;;;27.28;33.14;101226.78;5021281;28;45438;-57
2022/07/14 01:00:24;;;;;;;;;16.50;12.50;;;;;27.27;33.28;101230.50;5028346;28;45459;-58
2022/07/14 01:02:49;;;;;;;;;13.00;12.00;;;;;27.25;32.94;101245.88;5034680;28;69696;-58
2022/07/14 01:05:14;;;;;;;;;13.75;11.00;;;;;27.24;33.39;101251.38;5034836;28;62966;-57
2022/07/14 01:07:40;;;;;;;;;12.75;11.00;;;;;27.24;33.17;101246.84;5043606;28;45347;-58
2022/07/14 01:10:06;;;;;;;;;17.75;11.00;;;;;27.22;33.16;101242.59;5019136;28;45539;-57
2022/07/14 01:12:32;;;;;;;;;14.25;11.50;;;;;27.18;33.08;101242.03;5029589;28;46913;-57
2022/07/14 01:14:57;;;;;;;;;12.25;10.50;;;;;27.17;33.03;101242.16;5038173;28;45303;-57
2022/07/14 01:17:23;;;;;;;;;8.75;7.75;;;;;27.12;34.23;101242.56;5035419;28;53017;-57
2022/07/14 01:19:48;;;;;;;;;16.50;11.25;;;;;27.07;33.71;101248.38;5029920;28;45999;-57
2022/07/14 01:22:14;;;;;;;;;8.00;7.00;;;;;27.04;33.88;101250.47;5033133;28;45379;-58
2022/07/14 01:24:39;;;;;;;;;8.00;8.00;;;;;27.00;33.15;101257.09;5026404;28;45516;-58
2022/07/14 01:27:05;;;;;;;;;5.50;4.75;;;;;26.97;33.30;101254.66;5003732;28;45444;-58
2022/07/14 01:29:30;;;;;;;;;7.75;5.25;;;;;26.94;33.28;101263.84;5016650;28;45758;-57
2022/07/14 01:31:56;;;;;;;;;6.25;5.50;;;;;26.91;33.91;101264.13;5029865;28;46122;-57
2022/07/14 01:34:21;;;;;;;;;6.00;6.00;;;;;26.88;33.64;101269.78;5037623;28;45416;-58
2022/07/14 01:36:49;;;;;;;;;9.75;7.00;;;;;26.83;34.25;101277.41;5033420;28;45439;-58
2022/07/14 01:39:14;;;;;;;;;10.50;9.25;;;;;26.78;34.32;101261.66;5028622;28;45411;-58
2022/07/14 01:41:40;;;;;;;;;8.25;6.75;;;;;26.73;34.42;101263.06;5035857;28;45971;-58
2022/07/14 01:44:06;;;;;;;;;15.00;10.50;;;;;26.67;33.83;101259.09;5014400;28;45489;-58
2022/07/14 01:46:31;;;;;;;;;6.25;6.25;;;;;26.63;34.01;101260.31;5036283;28;45339;-58
2022/07/14 01:48:56;;;;;;;;;7.25;6.25;;;;;26.59;33.55;101262.38;5028274;28;58760;-58
2022/07/14 01:51:22;;;;;;;;;11.00;7.00;;;;;26.54;33.88;101256.56;5020444;28;69019;-58
2022/07/14 01:53:47;;;;;;;;;11.50;7.75;;;;;26.49;34.15;101253.44;5035092;28;56046;-57
2022/07/14 01:56:13;;;;;;;;;9.00;7.50;;;;;26.44;34.44;101253.00;5034012;28;45533;-58
2022/07/14 01:58:38;;;;;;;;;11.50;8.50;;;;;26.37;34.40;101252.66;5040626;28;45295;-58
2022/07/14 02:03:53;;;;;;;;;8.75;8.75;;;;;26.29;34.55;101244.41;5038731;28;45980;-58
2022/07/14 02:06:19;;;;;;;;;11.00;8.00;;;;;26.26;34.78;101250.03;5042668;28;59416;-58
2022/07/14 02:08:44;;;;;;;;;10.00;7.00;;;;;26.24;34.86;101243.94;5033084;28;60212;-57
2022/07/14 02:13:53;;;;;;;;;9.25;7.75;;;;;26.16;35.09;101243.78;5040650;28;45456;-57
2022/07/14 02:16:19;;;;;;;;;6.25;6.25;;;;;26.11;34.89;101239.63;5036352;28;62716;-58
2022/07/14 02:18:44;;;;;;;;;9.25;8.75;;;;;26.07;35.38;101237.34;5040649;28;45394;-58
2022/07/14 02:21:09;;;;;;;;;13.25;10.75;;;;;26.02;35.83;101231.53;5038776;28;52457;-58
2022/07/14 02:23:35;;;;;;;;;11.00;11.00;;;;;25.97;36.19;101231.91;5038575;28;45371;-58
2022/07/14 02:26:00;;;;;;;;;12.00;11.50;;;;;25.93;35.63;101233.13;5037009;28;62858;-57
2022/07/14 02:28:25;;;;;;;;;12.00;9.25;;;;;25.88;35.60;101232.66;5037881;28;59441;-58
2022/07/14 02:30:51;;;;;;;;;16.50;9.75;;;;;25.86;35.77;101226.56;5042598;28;45930;-58
2022/07/14 02:33:17;;;;;;;;;23.50;15.75;;;;;25.83;35.70;101229.50;5044459;28;45550;-58
2022/07/14 02:35:42;;;;;;;;;22.50;19.00;;;;;25.81;36.35;101228.78;5037101;28;45403;-58
2022/07/14 02:38:09;;;;;;;;;19.75;19.00;;;;;25.75;36.24;101222.97;5036935;28;45404;-58
2022/07/14 02:40:34;;;;;;;;;25.25;19.25;;;;;25.73;35.96;101222.25;5048243;28;67770;-58
2022/07/14 02:42:59;;;;;;;;;34.50;27.25;;;;;25.71;36.31;101226.88;5038279;28;66143;-58
2022/07/14 02:45:25;;;;;;;;;32.75;26.00;;;;;25.68;36.41;101223.59;5032902;28;58819;-57
2022/07/14 02:47:50;;;;;;;;;29.50;23.25;;;;;25.63;36.89;101223.13;5040219;28;45634;-58
2022/07/14 02:50:15;;;;;;;;;31.75;22.25;;;;;25.56;37.07;101217.44;5040277;28;46067;-58
2022/07/14 02:52:41;;;;;;;;;23.50;17.25;;;;;25.53;37.15;101215.88;5038221;28;67392;-57
2022/07/14 02:55:06;;;;;;;;;15.50;15.50;;;;;25.52;37.06;101214.16;5034140;28;62068;-58
2022/07/14 02:57:32;;;;;;;;;13.50;13.50;;;;;25.49;37.59;101214.41;5037421;28;45366;-58
2022/07/14 02:59:58;;;;;;;;;13.25;12.50;;;;;25.45;37.52;101215.63;5034258;28;46052;-56
2022/07/14 03:02:24;;;;;;;;;13.25;12.25;;;;;25.41;37.42;101219.56;5038858;28;45819;-58
2022/07/14 03:04:49;;;;;;;;;14.25;13.25;;;;;25.39;37.65;101206.28;5029864;28;45435;-58
2022/07/14 03:07:14;;;;;;;;;12.25;11.25;;;;;25.35;37.60;101215.53;5032480;28;45399;-58
2022/07/14 03:09:40;;;;;;;;;12.75;11.25;;;;;25.31;37.75;101216.78;5030053;28;64404;-58
2022/07/14 03:12:05;;;;;;;;;14.25;11.25;;;;;25.29;38.39;101205.34;5027312;28;66625;-58
2022/07/14 03:14:31;;;;;;;;;11.25;9.00;;;;;25.27;38.29;101209.09;5035421;28;45403;-58
2022/07/14 03:16:56;;;;;;;;;14.50;12.50;;;;;25.23;38.77;101216.50;5039001;28;45425;-57
2022/07/14 03:19:21;;;;;;;;;11.00;9.00;;;;;25.22;37.72;101214.81;5028752;28;73738;-58
2022/07/14 03:21:47;;;;;;;;;10.00;9.00;;;;;25.20;37.96;101220.28;5031855;28;72867;-58
2022/07/14 03:24:13;;;;;;;;;12.00;11.00;;;;;25.18;38.67;101219.56;5038361;28;45458;-58
2022/07/14 03:26:39;;;;;;;;;9.75;9.00;;;;;25.15;38.17;101214.44;5035370;28;45443;-58
2022/07/14 03:29:05;;;;;;;;;12.00;11.50;;;;;25.10;39.00;101208.63;5046566;28;47161;-58
2022/07/14 03:31:30;;;;;;;;;10.00;8.75;;;;;25.09;38.43;101211.41;5034052;28;45845;-57
2022/07/14 03:33:55;;;;;;;;;10.25;8.00;;;;;25.04;38.94;101211.81;5037836;28;45904;-58
2022/07/14 03:36:21;;;;;;;;;9.75;8.75;;;;;25.02;38.92;101211.09;5037093;28;55867;-58
2022/07/14 03:38:46;;;;;;;;;10.25;8.50;;;;;25.00;38.87;101211.22;5034738;28;46320;-58
2022/07/14 03:41:12;;;;;;;;;11.00;10.00;;;;;25.01;38.89;101209.38;5035409;28;51886;-57
2022/07/14 03:43:37;;;;;;;;;10.25;9.25;;;;;25.01;39.19;101210.22;5031177;28;45883;-58
2022/07/14 03:46:03;;;;;;;;;10.75;10.25;;;;;24.99;39.25;101204.13;5036427;28;62747;-57
2022/07/14 03:48:28;;;;;;;;;9.75;8.50;;;;;25.00;39.32;101202.28;5035535;28;46331;-58
2022/07/14 03:50:54;;;;;;;;;9.75;8.00;;;;;24.98;39.27;101205.13;5037599;28;45516;-55
2022/07/14 03:53:19;;;;;;;;;10.00;7.75;;;;;24.96;39.40;101206.22;5034635;28;56667;-57
2022/07/14 03:55:45;;;;;;;;;9.50;9.00;;;;;24.93;39.21;101209.13;5020063;28;45334;-56
2022/07/14 03:58:10;;;;;;;;;10.50;8.00;;;;;24.91;39.39;101211.06;5031960;28;47849;-56
2022/07/14 04:00:36;;;;;;;;;8.75;7.75;;;;;24.86;39.40;101213.28;5035238;28;45285;-57
2022/07/14 04:03:01;;;;;;;;;9.50;7.75;;;;;24.80;39.50;101215.47;5026570;28;46163;-57
2022/07/14 04:05:28;;;;;;;;;15.00;9.75;;;;;24.78;39.72;101211.22;5030283;28;70839;-57
2022/07/14 04:07:53;;;;;;;;;10.75;8.00;;;;;24.74;39.80;101212.44;5037461;28;45637;-56
2022/07/14 04:10:18;;;;;;;;;12.25;9.00;;;;;24.71;39.39;101218.88;5030210;28;69517;-57
2022/07/14 04:12:44;;;;;;;;;9.25;8.00;;;;;24.70;39.87;101213.63;5032880;28;63654;-57
2022/07/14 04:15:10;;;;;;;;;11.50;8.00;;;;;24.66;39.62;101213.03;5035176;28;45532;-58
2022/07/14 04:17:35;;;;;;;;;10.00;7.25;;;;;24.64;40.47;101220.34;5028685;28;45516;-58
2022/07/14 04:20:00;;;;;;;;;10.25;9.25;;;;;24.61;40.34;101218.75;5013496;28;45250;-57
2022/07/14 04:22:27;;;;;;;;;7.00;6.75;;;;;24.59;40.30;101214.50;5032486;28;45427;-57
2022/07/14 04:24:52;;;;;;;;;7.00;7.00;;;;;24.58;40.60;101220.81;5034903;28;45340;-56
2022/07/14 04:27:18;;;;;;;;;9.25;9.00;;;;;24.57;40.64;101221.78;5033166;28;46099;-56
2022/07/14 04:29:43;;;;;;;;;9.50;9.00;;;;;24.53;40.60;101221.19;5034942;28;45216;-57
2022/07/14 04:32:10;;;;;;;;;9.50;9.50;;;;;24.51;40.64;101220.41;5030287;28;45273;-57
2022/07/14 04:34:35;;;;;;;;;14.50;11.25;;;;;24.50;40.85;101226.72;5033797;28;45348;-56
2022/07/14 04:37:01;;;;;;;;;9.50;8.00;;;;;24.48;40.79;101215.31;5036026;28;45605;-56
2022/07/14 04:39:26;;;;;;;;;9.00;8.75;;;;;24.47;40.69;101223.44;5039912;28;56153;-56
2022/07/14 04:41:52;;;;;;;;;7.50;7.50;;;;;24.48;40.75;101217.97;5037147;28;65788;-56
2022/07/14 04:44:17;;;;;;;;;8.50;8.25;;;;;24.50;40.95;101223.22;5038027;28;45638;-56
2022/07/14 04:46:43;;;;;;;;;11.25;9.50;;;;;24.50;40.88;101232.09;5029207;28;45425;-56
2022/07/14 04:52:02;;;;;;;;;8.00;8.00;;;;;24.48;40.89;101222.47;5033534;28;45400;-57
2022/07/14 04:54:28;;;;;;;;;10.50;7.50;;;;;24.48;40.37;101230.50;5024398;28;45609;-55
2022/07/14 04:56:53;;;;;;;;;11.00;8.50;;;;;24.45;41.32;101231.59;5034515;28;45506;-57
2022/07/14 04:59:18;;;;;;;;;10.25;8.75;;;;;24.44;41.57;101230.75;5030481;28;45466;-56
2022/07/14 05:01:44;;;;;;;;;10.75;8.50;;;;;24.47;41.50;101236.81;5036027;28;60385;-56
2022/07/14 05:04:09;;;;;;;;;9.25;8.50;;;;;24.45;41.24;101231.59;5026580;28;66637;-56
2022/07/14 05:06:35;;;;;;;;;9.50;9.50;;;;;24.44;41.50;101230.75;5026428;28;68119;-57
2022/07/14 05:09:01;;;;;;;;;10.75;6.50;;;;;24.42;41.68;101224.66;5029553;28;45818;-56
2022/07/14 05:11:26;;;;;;;;;11.50;11.00;;;;;24.43;41.58;101231.72;5033404;28;45158;-56
2022/07/14 05:13:54;;;;;;;;;10.25;8.00;;;;;24.43;41.75;101228.19;5033062;28;45529;-56
2022/07/14 05:16:20;;;;;;;;;11.00;9.25;;;;;24.43;42.50;101230.84;5037314;28;46066;-56
2022/07/14 05:18:46;;;;;;;;;10.75;8.00;;;;;24.43;41.37;101236.22;5034811;28;62040;-56
2022/07/14 05:21:12;;;;;;;;;9.25;9.00;;;;;24.42;41.97;101229.16;5026444;28;45517;-58
2022/07/14 05:23:37;;;;;;;;;11.75;8.75;;;;;24.40;42.65;101225.72;5030714;28;45681;-57
2022/07/14 05:26:03;;;;;;;;;14.00;12.00;;;;;24.41;41.97;101230.97;5036650;28;46337;-57
2022/07/14 05:28:28;;;;;;;;;8.50;7.50;;;;;24.43;42.03;101230.84;5026795;28;45525;-56
2022/07/14 05:31:00;;;;;;;;;10.75;9.25;;;;;24.44;42.19;101229.91;5029210;28;45477;-57
2022/07/14 05:33:25;;;;;;;;;12.00;9.50;;;;;24.43;41.76;101230.84;5036768;28;45359;-56
2022/07/14 05:35:50;;;;;;;;;14.25;10.00;;;;;24.40;43.23;101233.75;5031153;28;70772;-57
2022/07/14 05:38:16;;;;;;;;;10.25;10.25;;;;;24.37;42.30;101229.50;5037170;28;63630;-57
2022/07/14 05:40:41;;;;;;;;;7.75;7.00;;;;;24.35;42.74;101225.28;5027971;28;45328;-57
2022/07/14 05:43:06;;;;;;;;;9.25;7.75;;;;;24.36;42.46;101226.97;5036720;28;46727;-55
2022/07/14 05:45:32;;;;;;;;;8.25;8.25;;;;;24.37;43.04;101231.34;5027885;28;72095;-56
2022/07/14 05:47:58;;;;;;;;;16.50;10.00;;;;;24.39;42.77;101235.59;5033659;28;45468;-57
2022/07/14 05:50:23;;;;;;;;;11.00;9.50;;;;;24.42;43.03;101235.38;5028504;28;47482;-56
2022/07/14 05:52:48;;;;;;;;;10.75;9.50;;;;;24.45;42.99;101247.63;5026278;28;51093;-56
2022/07/14 05:55:14;;;;;;;;;7.00;7.00;;;;;24.50;42.12;101248.13;5031149;28;71690;-56
2022/07/14 05:57:39;;;;;;;;;12.75;9.25;;;;;24.57;41.94;101249.38;5020233;28;45431;-57
2022/07/14 06:00:06;;;;;;;;;8.25;7.50;;;;;24.62;42.67;101246.38;5037599;28;46274;-56
2022/07/14 06:02:31;;;;;;;;;10.25;9.50;;;;;24.69;42.20;101250.25;5031833;28;45505;-55
2022/07/14 06:04:56;;;;;;;;;13.00;9.25;;;;;24.72;42.54;101244.69;5031799;28;72162;-57
2022/07/14 06:07:22;;;;;;;;;13.75;11.00;;;;;24.74;42.19;101253.44;5050942;28;45751;-56
2022/07/14 06:09:49;;;;;;;;;12.00;9.25;;;;;24.76;42.19;101248.81;5015561;28;45423;-55
2022/07/14 06:12:16;;;;;;;;;12.75;9.50;;;;;24.79;42.61;101259.28;5038102;28;45320;-56
2022/07/14 06:14:43;;;;;;;;;11.00;10.25;;;;;24.77;42.22;101250.53;5012879;28;46744;-56
2022/07/14 06:17:08;;;;;;;;;11.25;10.25;;;;;24.75;42.58;101252.44;5030409;28;45770;-53
2022/07/14 06:19:34;;;;;;;;;13.50;11.00;;;;;24.75;42.42;101249.75;5029942;28;45384;-56
2022/07/14 06:22:03;;;;;;;;;11.00;9.75;;;;;24.79;42.65;101253.09;5031497;28;51617;-56
2022/07/14 06:24:28;;;;;;;;;9.75;9.00;;;;;24.79;42.88;101256.59;5034355;28;45376;-56
2022/07/14 06:26:54;;;;;;;;;13.00;11.75;;;;;24.79;42.11;101251.25;5037696;28;70522;-56
2022/07/14 06:29:19;;;;;;;;;14.50;11.50;;;;;24.78;42.70;101251.38;5042224;28;48707;-56
2022/07/14 06:31:44;;;;;;;;;6.75;6.75;;;;;24.81;43.30;101253.81;5030241;28;70486;-56
2022/07/14 06:34:10;;;;;;;;;14.50;11.00;;;;;24.83;42.61;101257.22;5034565;28;45616;-56
2022/07/14 06:36:35;;;;;;;;;15.00;12.75;;;;;24.85;42.17;101257.94;5033327;28;45435;-55
2022/07/14 06:39:01;;;;;;;;;16.00;13.75;;;;;24.84;42.53;101264.25;5027554;28;68568;-53
2022/07/14 06:41:26;;;;;;;;;12.25;11.25;;;;;24.81;43.28;101264.53;5036580;28;45573;-45
2022/07/14 06:43:51;;;;;;;;;16.50;15.75;;;;;24.76;42.81;101254.16;5037229;28;47710;-54
2022/07/14 06:46:17;;;;;;;;;12.50;11.50;;;;;24.76;42.94;101262.19;5036476;28;45432;-43
2022/07/14 06:48:43;;;;;;;;;12.25;11.75;;;;;24.77;42.80;101263.91;5029435;28;61201;-48
2022/07/14 06:51:08;;;;;;;;;12.00;10.75;;;;;24.76;42.89;101261.34;5031755;28;45515;-43
2022/07/14 06:53:34;;;;;;;;;14.75;11.50;;;;;24.76;43.01;101259.50;5038580;28;46329;-48
2022/07/14 06:55:59;;;;;;;;;11.75;9.50;;;;;24.74;43.13;101258.78;5037814;28;45393;-45
2022/07/14 06:58:24;;;;;;;;;12.00;10.25;;;;;24.75;42.34;101257.78;5047990;28;45269;-48
2022/07/14 07:00:50;;;;;;;;;12.50;11.50;;;;;24.75;42.43;101255.13;5037731;28;66602;-46
2022/07/14 07:03:15;;;;;;;;;13.75;11.75;;;;;24.83;43.11;101258.06;5029223;28;71447;-46
2022/07/14 07:08:25;;;;;;;;;11.25;10.75;;;;;24.92;43.30;101258.31;5031097;28;45369;-46
2022/07/14 07:10:51;;;;;;;;;10.00;9.25;;;;;24.96;42.70;101251.72;5038623;28;45170;-45
2022/07/14 07:13:16;;;;;;;;;11.00;10.00;;;;;25.02;42.63;101256.59;5040186;28;45430;-44
2022/07/14 07:15:42;;;;;;;;;14.50;10.50;;;;;25.07;42.68;101262.41;5032998;28;45378;-53
2022/07/14 07:18:07;;;;;;;;;4.00;4.00;;;;;25.13;43.70;101267.31;5030306;28;46033;-48
2022/07/14 07:20:34;;;;;;;;;5.25;5.00;;;;;25.08;44.18;101271.31;5035660;28;45483;-53
2022/07/14 07:23:00;;;;;;;;;3.25;3.25;;;;;25.00;44.43;101267.44;5038076;28;46192;-49
2022/07/14 07:25:26;;;;;;;;;3.75;3.75;;;;;24.95;44.66;101258.91;5035870;28;45743;-47
2022/07/14 07:27:51;;;;;;;;;4.25;4.00;;;;;24.92;44.91;101267.19;5030353;28;45360;-48
2022/07/14 07:30:17;;;;;;;;;4.75;4.75;;;;;24.92;44.88;101269.88;5029146;28;45499;-51
2022/07/14 07:32:42;;;;;;;;;4.00;4.00;;;;;24.91;45.03;101262.78;5037337;28;67881;-49
2022/07/14 07:35:08;;;;;;;;;6.50;5.50;;;;;24.91;44.62;101259.28;5033360;28;65229;-48
2022/07/14 07:37:33;;;;;;;;;5.00;3.00;;;;;24.91;44.72;101254.75;5049094;28;45398;-49
2022/07/14 07:39:59;;;;;;;;;5.00;3.00;;;;;24.93;44.94;101262.66;5033127;28;45582;-49
2022/07/14 07:42:25;;;;;;;;;4.00;4.00;;;;;24.94;44.75;101261.72;5033476;28;55852;-51
2022/07/14 07:44:50;;;;;;;;;3.25;3.25;;;;;24.96;45.02;101249.06;5040535;28;45390;-51
2022/07/14 07:47:16;;;;;;;;;3.75;3.00;;;;;24.96;45.06;101251.72;5031323;28;45512;-49
2022/07/14 07:49:41;;;;;;;;;4.00;3.00;;;;;24.98;45.04;101252.44;5029176;28;45456;-48
2022/07/14 07:52:06;;;;;;;;;3.50;3.50;;;;;25.00;44.95;101258.53;5033654;28;45409;-49
2022/07/14 07:54:32;;;;;;;;;3.75;3.75;;;;;25.03;45.16;101269.00;5034417;28;45318;-50
2022/07/14 07:56:59;;;;;;;;;4.75;3.00;;;;;25.02;44.76;101257.44;5039334;28;45187;-54
2022/07/14 07:59:25;;;;;;;;;4.50;4.50;;;;;25.05;44.86;101253.66;5034483;28;45488;-53
2022/07/14 08:01:50;;;;;;;;;3.00;3.00;;;;;25.07;44.52;101258.91;5035403;28;45975;-52
2022/07/14 08:04:16;;;;;;;;;4.75;3.00;;;;;25.07;44.93;101246.34;5034270;28;51398;-52
2022/07/14 08:06:41;;;;;;;;;1.25;1.25;;;;;25.10;44.82;101259.50;5041815;28;45593;-51
2022/07/14 08:09:11;;;;;;;;;6.50;4.25;;;;;25.11;44.73;101258.53;5033977;28;45592;-52
2022/07/14 08:11:38;;;;;;;;;4.00;4.00;;;;;25.13;44.70;101261.09;5040146;28;46078;-52
2022/07/14 08:14:03;;;;;;;;;3.25;3.00;;;;;25.16;44.53;101250.13;5036316;28;46098;-51
2022/07/14 08:16:29;;;;;;;;;3.00;2.25;;;;;25.18;44.86;101250.88;5035801;28;50395;-52
2022/07/14 08:18:54;;;;;;;;;2.75;2.75;;;;;25.18;44.56;101241.00;5036310;28;45497;-51
2022/07/14 08:21:20;;;;;;;;;3.00;3.00;;;;;25.20;44.63;101240.88;5038793;28;58580;-52
2022/07/14 08:23:45;;;;;;;;;2.25;1.25;;;;;25.22;44.75;101243.44;5020826;28;45508;-52
2022/07/14 08:26:10;;;;;;;;;3.00;2.00;;;;;25.24;44.55;101253.03;5024722;28;64316;-52
2022/07/14 08:28:36;;;;;;;;;3.00;2.75;;;;;25.27;44.80;101246.59;5045706;28;68266;-50
2022/07/14 08:31:02;;;;;;;;;3.00;3.00;;;;;25.28;44.76;101243.81;5038747;28;45532;-51
2022/07/14 08:33:27;;;;;;;;;2.75;1.50;;;;;25.30;44.86;101243.69;5044044;28;45383;-53
2022/07/14 08:35:52;;;;;;;;;2.50;2.50;;;;;25.31;44.61;101246.25;5035556;28;45745;-51
2022/07/14 08:38:18;;;;;;;;;2.50;2.50;;;;;25.33;44.63;101246.97;5038976;28;45439;-53
2022/07/14 08:40:43;;;;;;;;;2.25;2.25;;;;;25.37;45.03;101252.91;5033170;28;45854;-52
2022/07/14 08:43:10;;;;;;;;;4.25;3.50;;;;;25.38;44.66;101246.59;5020899;28;45439;-51
2022/07/14 08:45:41;;;;;;;;;2.00;2.00;;;;;25.39;44.61;101246.47;5038454;28;45446;-52
2022/07/14 08:48:06;;;;;;;;;1.75;1.75;;;;;25.41;44.92;101242.81;5038147;28;45412;-52
2022/07/14 08:50:32;;;;;;;;;2.25;2.00;;;;;25.42;44.58;101240.00;5031388;28;46237;-52
2022/07/14 08:52:57;;;;;;;;;2.00;2.00;;;;;25.44;44.40;101240.72;5032366;28;45469;-53
2022/07/14 08:55:23;;;;;;;;;1.25;1.25;;;;;25.45;44.47;101247.78;5032726;28;45813;-50
2022/07/14 08:57:48;;;;;;;;;1.25;1.25;;;;;25.47;44.63;101243.16;5038053;28;45453;-50
2022/07/14 09:00:16;;;;;;;;;2.75;1.75;;;;;25.48;44.54;101239.50;5047229;28;48174;-55
2022/07/14 09:02:49;;;;;;;;;2.25;2.25;;;;;25.50;44.40;101240.22;5035308;28;45365;-51
2022/07/14 09:05:14;;;;;;;;;3.00;2.00;;;;;25.52;44.19;101243.63;5027997;28;45586;-52
2022/07/14 09:07:40;;;;;;;;;3.25;1.50;;;;;25.53;44.17;101242.66;5029491;28;46006;-49
2022/07/14 09:10:10;;;;;;;;;1.75;1.75;;;;;25.56;44.66;101246.91;5026290;28;45744;-51
2022/07/14 09:12:36;;;;;;;;;3.25;2.50;;;;;25.56;44.20;101247.75;5033830;28;45432;-52
2022/07/14 09:15:46;;;;;;;;;3.00;3.00;;;;;25.56;44.02;101237.03;5029794;28;45533;-53
2022/07/14 09:18:04;;;;;;;;;3.50;2.00;;;;;25.58;44.23;101232.38;5030903;28;47127;-51
2022/07/14 09:20:31;;;;;;;;;1.75;1.75;;;;;25.60;43.99;101223.38;5037541;28;47010;-50
2022/07/14 09:22:58;;;;;;;;;1.00;1.00;;;;;25.62;44.10;101224.09;5038061;28;45872;-52
2022/07/14 09:25:25;;;;;;;;;3.75;1.50;;;;;25.62;44.19;101227.66;5024623;28;45415;-53
2022/07/14 09:27:51;;;;;;;;;1.50;1.50;;;;;25.65;44.30;101229.22;5012030;28;45510;-49
2022/07/14 09:30:17;;;;;;;;;3.75;2.00;;;;;25.64;43.84;101224.81;5031162;28;46147;-51
2022/07/14 09:32:51;;;;;;;;;2.75;2.75;;;;;25.66;43.86;101231.78;5039492;28;45801;-50
2022/07/14 09:35:20;;;;;;;;;1.25;1.25;;;;;25.68;43.72;101228.97;5028924;28;45572;-49
2022/07/14 09:37:46;;;;;;;;;1.75;1.25;;;;;25.68;43.83;101227.13;5043649;28;45435;-51
2022/07/14 09:40:27;;;;;;;;;2.50;2.25;;;;;25.70;43.82;101225.16;5031138;28;45345;-51
2022/07/14 09:42:57;;;;;;;;;3.25;2.00;;;;;25.73;43.80;101226.75;5035906;28;45567;-47
2022/07/14 09:45:34;;;;;;;;;2.00;2.00;;;;;25.74;43.75;101233.81;5028728;28;45377;-51
2022/07/14 09:48:01;;;;;;;;;2.25;2.25;;;;;25.75;43.71;101233.69;5043008;28;45204;-49
2022/07/14 09:50:40;;;;;;;;;2.00;2.00;;;;;25.79;43.89;101236.13;5031999;28;45549;-50
2022/07/14 09:53:09;;;;;;;;;1.75;1.75;;;;;25.81;43.67;101228.78;5027293;28;45852;-51
2022/07/14 09:55:36;;;;;;;;;3.25;2.00;;;;;25.84;43.48;101229.38;5026298;28;45375;-47
2022/07/14 09:58:04;;;;;;;;;3.00;2.00;;;;;25.88;43.36;101222.78;5031213;28;46045;-49
2022/07/14 10:00:30;;;;;;;;;2.00;1.50;;;;;25.93;43.10;101227.75;5026354;28;46331;-50
2022/07/14 10:02:56;;;;;;;;;0.25;0.25;;;;;25.99;43.45;101229.94;5040570;28;45281;-50
2022/07/14 10:05:22;;;;;;;;;3.00;3.00;;;;;25.99;42.38;101234.47;5032861;28;45523;-51
2022/07/14 10:07:48;;;;;;;;;2.00;2.00;;;;;25.89;41.25;101223.66;5029228;28;52607;-52
2022/07/14 10:10:15;;;;;;;;;3.00;3.00;;;;;25.80;41.08;101227.06;5030452;28;45679;-51
2022/07/14 10:12:41;;;;;;;;;3.00;3.00;;;;;25.68;40.54;101226.28;5035263;28;45302;-50
2022/07/14 10:15:10;;;;;;;;;3.25;3.25;;;;;25.57;40.44;101225.34;5033124;28;45496;-47
2022/07/14 10:17:37;;;;;;;;;4.50;3.00;;;;;25.50;40.00;101226.00;5034608;28;45502;-51
2022/07/14 10:20:06;;;;;;;;;3.00;3.00;;;;;25.43;40.05;101233.69;5036269;28;46348;-50
2022/07/14 10:22:31;;;;;;;;;4.00;3.00;;;;;25.34;39.64;101235.28;5029598;28;45887;-50
2022/07/14 10:24:57;;;;;;;;;4.00;3.00;;;;;25.29;39.29;101225.91;5025800;28;50181;-51
2022/07/14 10:27:22;;;;;;;;;5.75;4.25;;;;;25.25;39.49;101224.44;5038928;28;45529;-50
2022/07/14 10:29:53;;;;;;;;;5.00;3.25;;;;;25.22;38.86;101224.69;5037908;28;45494;-51
2022/07/14 10:32:49;;;;;;;;;5.50;5.00;;;;;25.20;38.91;101225.66;5033771;28;45992;-52
2022/07/14 10:35:35;;;;;;;;;5.25;3.75;;;;;25.18;38.65;101222.25;5032824;28;45420;-53
2022/07/14 10:38:26;;;;;;;;;4.50;4.25;;;;;25.18;38.34;101227.59;5024847;28;47000;-51
2022/07/14 10:41:08;;;;;;;;;5.25;3.75;;;;;25.19;37.92;101231.13;5036395;28;45391;-51
2022/07/14 10:44:05;;;;;;;;;3.00;3.00;;;;;25.20;37.84;101224.81;5028454;28;45330;-53
2022/07/14 10:46:42;;;;;;;;;2.25;2.25;;;;;25.23;37.83;101229.88;5023251;28;45583;-52
2022/07/14 10:49:09;;;;;;;;;3.00;2.00;;;;;25.23;37.54;101229.88;5033201;28;45607;-53
2022/07/14 10:51:44;;;;;;;;;3.50;3.50;;;;;25.27;37.35;101233.22;5035077;28;46799;-52
2022/07/14 10:54:11;;;;;;;;;4.50;4.00;;;;;25.29;38.08;101224.09;5033731;28;46884;-51
2022/07/14 10:56:38;;;;;;;;;4.00;4.00;;;;;25.36;38.76;101229.78;5032674;28;45415;-50
2022/07/14 10:59:25;;;;;;;;;3.00;2.25;;;;;25.44;38.88;101224.63;5028783;28;45595;-52
2022/07/14 11:02:13;;;;;;;;;3.25;3.00;;;;;25.49;38.67;101217.06;5033817;28;46163;-52
2022/07/14 11:05:13;;;;;;;;;2.00;2.00;;;;;25.54;38.52;101224.75;5037102;28;45451;-49
2022/07/14 11:07:50;;;;;;;;;3.25;3.25;;;;;25.59;38.61;101209.13;5039153;28;45396;-52
2022/07/14 11:10:21;;;;;;;;;4.50;4.00;;;;;25.64;38.77;101219.47;5034262;28;45297;-49
2022/07/14 11:13:04;;;;;;;;;3.75;3.25;;;;;25.72;38.79;101214.31;5034216;28;45454;-51
2022/07/14 11:15:49;;;;;;;;;3.00;3.00;;;;;25.81;38.55;101221.59;5032712;28;45551;-50
2022/07/14 11:18:17;;;;;;;;;3.75;2.25;;;;;25.97;38.47;101223.03;5034752;28;45429;-60
2022/07/14 11:21:12;;;;;;;;;2.25;2.25;;;;;26.16;38.93;101222.31;5028301;28;45431;-49
2022/07/14 11:23:39;;;;;;;;;2.75;2.00;;;;;26.30;38.71;101230.03;5032967;28;46040;-51
2022/07/14 11:26:07;;;;;;;;;2.75;2.75;;;;;26.42;38.43;101222.72;5033945;28;46051;-52
2022/07/14 11:28:43;;;;;;;;;3.00;3.00;;;;;26.51;38.86;101236.22;5030988;28;45367;-51
2022/07/14 11:31:10;;;;;;;;;3.00;3.00;;;;;26.58;38.57;101232.97;5038748;28;45510;-52